sensor_id;sensor_type;location;lat;lon;timestamp;temperature;humidity
66722;SHT31;53633;49.932;10.884;2024-03-08T00:00:21;2.84;74.50
66722;SHT31;53633;49.932;10.884;2024-03-08T00:02:48;2.93;74.49
66722;SHT31;53633;49.932;10.884;2024-03-08T00:05:15;2.94;74.22
66722;SHT31;53633;49.932;10.884;2024-03-08T00:07:42;2.93;74.27
66722;SHT31;53633;49.932;10.884;2024-03-08T00:10:11;2.86;74.33
66722;SHT31;53633;49.932;10.884;2024-03-08T00:12:40;2.75;74.65
66722;SHT31;53633;49.932;10.884;2024-03-08T00:15:09;2.71;75.16
66722;SHT31;53633;49.932;10.884;2024-03-08T00:17:36;2.73;75.22
66722;SHT31;53633;49.932;10.884;2024-03-08T00:20:04;2.69;75.15
66722;SHT31;53633;49.932;10.884;2024-03-08T00:22:31;2.60;75.28
66722;SHT31;53633;49.932;10.884;2024-03-08T00:24:58;2.63;75.53
66722;SHT31;53633;49.932;10.884;2024-03-08T00:27:25;2.63;75.32
66722;SHT31;53633;49.932;10.884;2024-03-08T00:29:51;2.56;75.48
66722;SHT31;53633;49.932;10.884;2024-03-08T00:32:20;2.56;75.71
66722;SHT31;53633;49.932;10.884;2024-03-08T00:34:47;2.53;75.94
66722;SHT31;53633;49.932;10.884;2024-03-08T00:37:13;2.62;75.65
66722;SHT31;53633;49.932;10.884;2024-03-08T00:39:40;2.59;75.66
66722;SHT31;53633;49.932;10.884;2024-03-08T00:42:07;2.55;75.67
66722;SHT31;53633;49.932;10.884;2024-03-08T00:44:34;2.63;75.70
66722;SHT31;53633;49.932;10.884;2024-03-08T00:47:01;2.56;75.90
66722;SHT31;53633;49.932;10.884;2024-03-08T00:49:29;2.57;75.61
66722;SHT31;53633;49.932;10.884;2024-03-08T00:51:55;2.52;75.83
66722;SHT31;53633;49.932;10.884;2024-03-08T00:54:22;2.46;75.97
66722;SHT31;53633;49.932;10.884;2024-03-08T00:56:49;2.45;76.11
66722;SHT31;53633;49.932;10.884;2024-03-08T00:59:16;2.50;76.17
66722;SHT31;53633;49.932;10.884;2024-03-08T01:01:43;2.52;75.95
66722;SHT31;53633;49.932;10.884;2024-03-08T01:04:10;2.48;76.09
66722;SHT31;53633;49.932;10.884;2024-03-08T01:06:38;2.55;76.08
66722;SHT31;53633;49.932;10.884;2024-03-08T01:09:05;2.53;75.97
66722;SHT31;53633;49.932;10.884;2024-03-08T01:11:32;2.49;76.07
66722;SHT31;53633;49.932;10.884;2024-03-08T01:13:59;2.46;76.23
66722;SHT31;53633;49.932;10.884;2024-03-08T01:16:25;2.49;76.54
66722;SHT31;53633;49.932;10.884;2024-03-08T01:18:52;2.45;76.87
66722;SHT31;53633;49.932;10.884;2024-03-08T01:21:19;2.48;76.91
66722;SHT31;53633;49.932;10.884;2024-03-08T01:23:47;2.45;76.90
66722;SHT31;53633;49.932;10.884;2024-03-08T01:26:17;2.41;76.81
66722;SHT31;53633;49.932;10.884;2024-03-08T01:28:44;2.41;76.76
66722;SHT31;53633;49.932;10.884;2024-03-08T01:31:11;2.34;76.79
66722;SHT31;53633;49.932;10.884;2024-03-08T01:33:37;2.31;76.94
66722;SHT31;53633;49.932;10.884;2024-03-08T01:36:05;2.21;77.06
66722;SHT31;53633;49.932;10.884;2024-03-08T01:38:32;2.17;77.50
66722;SHT31;53633;49.932;10.884;2024-03-08T01:41:00;2.14;77.60
66722;SHT31;53633;49.932;10.884;2024-03-08T01:43:28;2.14;77.84
66722;SHT31;53633;49.932;10.884;2024-03-08T01:45:57;2.13;77.96
66722;SHT31;53633;49.932;10.884;2024-03-08T01:48:24;2.21;78.07
66722;SHT31;53633;49.932;10.884;2024-03-08T01:50:52;2.22;77.69
66722;SHT31;53633;49.932;10.884;2024-03-08T01:53:19;2.13;78.42
66722;SHT31;53633;49.932;10.884;2024-03-08T01:55:49;2.25;78.07
66722;SHT31;53633;49.932;10.884;2024-03-08T01:58:17;2.27;77.94
66722;SHT31;53633;49.932;10.884;2024-03-08T02:00:46;2.31;77.49
66722;SHT31;53633;49.932;10.884;2024-03-08T02:03:14;2.21;77.65
66722;SHT31;53633;49.932;10.884;2024-03-08T02:05:41;2.10;77.90
66722;SHT31;53633;49.932;10.884;2024-03-08T02:08:08;2.13;78.40
66722;SHT31;53633;49.932;10.884;2024-03-08T02:10:35;2.21;78.32
66722;SHT31;53633;49.932;10.884;2024-03-08T02:13:02;2.21;78.01
66722;SHT31;53633;49.932;10.884;2024-03-08T02:15:52;2.24;78.27
66722;SHT31;53633;49.932;10.884;2024-03-08T02:18:19;2.28;77.83
66722;SHT31;53633;49.932;10.884;2024-03-08T02:20:48;2.20;77.99
66722;SHT31;53633;49.932;10.884;2024-03-08T02:23:15;2.20;78.10
66722;SHT31;53633;49.932;10.884;2024-03-08T02:25:42;2.29;77.94
66722;SHT31;53633;49.932;10.884;2024-03-08T02:28:09;2.21;77.82
66722;SHT31;53633;49.932;10.884;2024-03-08T02:30:37;2.17;77.70
66722;SHT31;53633;49.932;10.884;2024-03-08T02:33:04;2.04;78.06
66722;SHT31;53633;49.932;10.884;2024-03-08T02:35:31;2.03;78.08
66722;SHT31;53633;49.932;10.884;2024-03-08T02:37:59;1.97;78.24
66722;SHT31;53633;49.932;10.884;2024-03-08T02:40:26;1.97;78.43
66722;SHT31;53633;49.932;10.884;2024-03-08T02:42:53;2.04;78.87
66722;SHT31;53633;49.932;10.884;2024-03-08T02:45:20;2.04;78.54
66722;SHT31;53633;49.932;10.884;2024-03-08T02:47:47;2.04;78.50
66722;SHT31;53633;49.932;10.884;2024-03-08T02:50:14;2.10;78.41
66722;SHT31;53633;49.932;10.884;2024-03-08T02:52:41;2.04;78.12
66722;SHT31;53633;49.932;10.884;2024-03-08T02:55:10;2.01;78.37
66722;SHT31;53633;49.932;10.884;2024-03-08T02:57:39;2.03;78.31
66722;SHT31;53633;49.932;10.884;2024-03-08T03:00:08;1.97;78.38
66722;SHT31;53633;49.932;10.884;2024-03-08T03:02:35;1.96;78.41
66722;SHT31;53633;49.932;10.884;2024-03-08T03:05:01;1.90;78.39
66722;SHT31;53633;49.932;10.884;2024-03-08T03:07:28;1.84;78.46
66722;SHT31;53633;49.932;10.884;2024-03-08T03:09:55;1.81;78.68
66722;SHT31;53633;49.932;10.884;2024-03-08T03:12:23;1.83;78.69
66722;SHT31;53633;49.932;10.884;2024-03-08T03:14:50;1.73;78.62
66722;SHT31;53633;49.932;10.884;2024-03-08T03:17:17;1.69;78.70
66722;SHT31;53633;49.932;10.884;2024-03-08T03:19:44;1.76;79.14
66722;SHT31;53633;49.932;10.884;2024-03-08T03:22:11;1.77;78.93
66722;SHT31;53633;49.932;10.884;2024-03-08T03:24:38;1.76;78.87
66722;SHT31;53633;49.932;10.884;2024-03-08T03:27:04;1.70;78.98
66722;SHT31;53633;49.932;10.884;2024-03-08T03:29:33;1.60;78.85
66722;SHT31;53633;49.932;10.884;2024-03-08T03:31:59;1.56;78.88
66722;SHT31;53633;49.932;10.884;2024-03-08T03:34:26;1.45;78.71
66722;SHT31;53633;49.932;10.884;2024-03-08T03:36:53;1.39;79.12
66722;SHT31;53633;49.932;10.884;2024-03-08T03:39:20;1.38;79.38
66722;SHT31;53633;49.932;10.884;2024-03-08T03:41:46;1.34;79.51
66722;SHT31;53633;49.932;10.884;2024-03-08T03:44:13;1.32;79.58
66722;SHT31;53633;49.932;10.884;2024-03-08T03:46:43;1.27;79.58
66722;SHT31;53633;49.932;10.884;2024-03-08T03:49:10;1.18;79.90
66722;SHT31;53633;49.932;10.884;2024-03-08T03:51:37;1.15;80.02
66722;SHT31;53633;49.932;10.884;2024-03-08T03:54:03;1.14;80.14
66722;SHT31;53633;49.932;10.884;2024-03-08T03:56:30;1.13;80.32
66722;SHT31;53633;49.932;10.884;2024-03-08T03:58:57;1.11;80.28
66722;SHT31;53633;49.932;10.884;2024-03-08T04:01:24;1.07;80.35
66722;SHT31;53633;49.932;10.884;2024-03-08T04:03:52;1.03;80.53
66722;SHT31;53633;49.932;10.884;2024-03-08T04:06:21;1.01;80.59
66722;SHT31;53633;49.932;10.884;2024-03-08T04:08:49;1.01;80.34
66722;SHT31;53633;49.932;10.884;2024-03-08T04:11:15;0.94;80.29
66722;SHT31;53633;49.932;10.884;2024-03-08T04:13:42;1.03;80.74
66722;SHT31;53633;49.932;10.884;2024-03-08T04:16:09;1.05;80.63
66722;SHT31;53633;49.932;10.884;2024-03-08T04:18:36;1.03;80.64
66722;SHT31;53633;49.932;10.884;2024-03-08T04:21:05;1.09;80.76
66722;SHT31;53633;49.932;10.884;2024-03-08T04:23:32;1.07;80.45
66722;SHT31;53633;49.932;10.884;2024-03-08T04:25:59;1.14;80.43
66722;SHT31;53633;49.932;10.884;2024-03-08T04:28:26;1.20;80.24
66722;SHT31;53633;49.932;10.884;2024-03-08T04:30:53;1.18;80.14
66722;SHT31;53633;49.932;10.884;2024-03-08T04:33:20;1.24;79.98
66722;SHT31;53633;49.932;10.884;2024-03-08T04:35:47;1.27;79.81
66722;SHT31;53633;49.932;10.884;2024-03-08T04:38:15;1.22;79.58
66722;SHT31;53633;49.932;10.884;2024-03-08T04:40:42;1.25;79.87
66722;SHT31;53633;49.932;10.884;2024-03-08T04:43:09;1.25;80.02
66722;SHT31;53633;49.932;10.884;2024-03-08T04:45:36;1.30;79.86
66722;SHT31;53633;49.932;10.884;2024-03-08T04:48:03;1.30;79.74
66722;SHT31;53633;49.932;10.884;2024-03-08T04:50:31;1.34;79.70
66722;SHT31;53633;49.932;10.884;2024-03-08T04:52:58;1.36;79.83
66722;SHT31;53633;49.932;10.884;2024-03-08T04:55:26;1.39;79.61
66722;SHT31;53633;49.932;10.884;2024-03-08T04:57:53;1.38;79.84
66722;SHT31;53633;49.932;10.884;2024-03-08T05:00:20;1.36;79.82
66722;SHT31;53633;49.932;10.884;2024-03-08T05:02:49;1.38;80.05
66722;SHT31;53633;49.932;10.884;2024-03-08T05:05:16;1.41;79.76
66722;SHT31;53633;49.932;10.884;2024-03-08T05:07:43;1.41;80.19
66722;SHT31;53633;49.932;10.884;2024-03-08T05:10:10;1.42;79.94
66722;SHT31;53633;49.932;10.884;2024-03-08T05:12:38;1.34;79.98
66722;SHT31;53633;49.932;10.884;2024-03-08T05:15:09;1.32;80.39
66722;SHT31;53633;49.932;10.884;2024-03-08T05:17:40;1.27;79.96
66722;SHT31;53633;49.932;10.884;2024-03-08T05:20:08;1.21;80.07
66722;SHT31;53633;49.932;10.884;2024-03-08T05:22:35;1.09;80.31
66722;SHT31;53633;49.932;10.884;2024-03-08T05:25:02;1.14;80.15
66722;SHT31;53633;49.932;10.884;2024-03-08T05:27:29;1.13;80.29
66722;SHT31;53633;49.932;10.884;2024-03-08T05:29:57;1.07;80.37
66722;SHT31;53633;49.932;10.884;2024-03-08T05:32:24;1.04;80.05
66722;SHT31;53633;49.932;10.884;2024-03-08T05:34:52;1.05;80.26
66722;SHT31;53633;49.932;10.884;2024-03-08T05:37:19;1.07;80.31
66722;SHT31;53633;49.932;10.884;2024-03-08T05:39:45;1.04;80.40
66722;SHT31;53633;49.932;10.884;2024-03-08T05:42:12;1.00;80.83
66722;SHT31;53633;49.932;10.884;2024-03-08T05:44:39;1.01;80.60
66722;SHT31;53633;49.932;10.884;2024-03-08T05:47:09;1.03;80.53
66722;SHT31;53633;49.932;10.884;2024-03-08T05:49:36;1.01;80.18
66722;SHT31;53633;49.932;10.884;2024-03-08T05:52:03;1.04;80.25
66722;SHT31;53633;49.932;10.884;2024-03-08T05:54:31;1.03;79.92
66722;SHT31;53633;49.932;10.884;2024-03-08T05:56:58;0.94;80.18
66722;SHT31;53633;49.932;10.884;2024-03-08T05:59:26;0.96;80.02
66722;SHT31;53633;49.932;10.884;2024-03-08T06:01:53;0.87;79.93
66722;SHT31;53633;49.932;10.884;2024-03-08T06:04:24;0.90;80.13
66722;SHT31;53633;49.932;10.884;2024-03-08T06:06:51;1.04;80.28
66722;SHT31;53633;49.932;10.884;2024-03-08T06:09:22;1.20;80.83
66722;SHT31;53633;49.932;10.884;2024-03-08T06:11:51;1.34;80.62
66722;SHT31;53633;49.932;10.884;2024-03-08T06:14:18;1.49;80.51
66722;SHT31;53633;49.932;10.884;2024-03-08T06:16:45;1.59;80.45
66722;SHT31;53633;49.932;10.884;2024-03-08T06:19:12;1.72;80.24
66722;SHT31;53633;49.932;10.884;2024-03-08T06:21:41;1.81;79.94
66722;SHT31;53633;49.932;10.884;2024-03-08T06:24:08;1.89;79.89
66722;SHT31;53633;49.932;10.884;2024-03-08T06:26:37;1.97;79.84
66722;SHT31;53633;49.932;10.884;2024-03-08T06:29:07;2.04;79.66
66722;SHT31;53633;49.932;10.884;2024-03-08T06:31:34;2.20;79.57
66722;SHT31;53633;49.932;10.884;2024-03-08T06:34:01;2.24;79.53
66722;SHT31;53633;49.932;10.884;2024-03-08T06:36:28;2.32;79.37
66722;SHT31;53633;49.932;10.884;2024-03-08T06:39:05;2.34;79.67
66722;SHT31;53633;49.932;10.884;2024-03-08T06:41:35;2.52;79.24
66722;SHT31;53633;49.932;10.884;2024-03-08T06:44:05;2.65;78.97
66722;SHT31;53633;49.932;10.884;2024-03-08T06:46:32;2.76;78.50
66722;SHT31;53633;49.932;10.884;2024-03-08T06:48:59;2.99;78.12
66722;SHT31;53633;49.932;10.884;2024-03-08T06:51:26;3.35;77.14
66722;SHT31;53633;49.932;10.884;2024-03-08T06:53:55;3.86;75.74
66722;SHT31;53633;49.932;10.884;2024-03-08T06:56:30;4.61;74.02
66722;SHT31;53633;49.932;10.884;2024-03-08T06:58:57;5.30;71.88
66722;SHT31;53633;49.932;10.884;2024-03-08T07:01:25;6.02;69.97
66722;SHT31;53633;49.932;10.884;2024-03-08T07:03:51;6.35;68.60
66722;SHT31;53633;49.932;10.884;2024-03-08T07:06:22;6.76;67.09
66722;SHT31;53633;49.932;10.884;2024-03-08T07:08:50;6.67;67.30
66722;SHT31;53633;49.932;10.884;2024-03-08T07:11:19;6.64;66.64
66722;SHT31;53633;49.932;10.884;2024-03-08T07:13:48;7.14;66.22
66722;SHT31;53633;49.932;10.884;2024-03-08T07:16:16;7.93;64.36
66722;SHT31;53633;49.932;10.884;2024-03-08T07:18:47;8.48;62.61
66722;SHT31;53633;49.932;10.884;2024-03-08T07:21:18;8.79;61.39
66722;SHT31;53633;49.932;10.884;2024-03-08T07:23:47;8.96;60.79
66722;SHT31;53633;49.932;10.884;2024-03-08T07:26:17;9.00;60.64
66722;SHT31;53633;49.932;10.884;2024-03-08T07:28:47;9.61;59.15
66722;SHT31;53633;49.932;10.884;2024-03-08T07:31:14;10.03;58.34
66722;SHT31;53633;49.932;10.884;2024-03-08T07:33:41;10.17;57.31
66722;SHT31;53633;49.932;10.884;2024-03-08T07:36:08;9.71;57.52
66722;SHT31;53633;49.932;10.884;2024-03-08T07:38:38;9.50;58.95
66722;SHT31;53633;49.932;10.884;2024-03-08T07:41:07;9.88;57.92
66722;SHT31;53633;49.932;10.884;2024-03-08T07:43:34;9.91;57.74
66722;SHT31;53633;49.932;10.884;2024-03-08T07:46:03;9.79;57.65
66722;SHT31;53633;49.932;10.884;2024-03-08T07:48:31;9.82;58.04
66722;SHT31;53633;49.932;10.884;2024-03-08T07:51:04;10.13;57.32
66722;SHT31;53633;49.932;10.884;2024-03-08T07:53:34;11.02;55.77
66722;SHT31;53633;49.932;10.884;2024-03-08T07:56:01;11.20;54.56
66722;SHT31;53633;49.932;10.884;2024-03-08T07:58:28;11.70;53.72
66722;SHT31;53633;49.932;10.884;2024-03-08T08:01:03;11.77;52.60
66722;SHT31;53633;49.932;10.884;2024-03-08T08:03:30;12.12;52.03
66722;SHT31;53633;49.932;10.884;2024-03-08T08:05:59;12.33;51.39
66722;SHT31;53633;49.932;10.884;2024-03-08T08:08:26;12.40;51.37
66722;SHT31;53633;49.932;10.884;2024-03-08T08:10:53;11.80;52.40
66722;SHT31;53633;49.932;10.884;2024-03-08T08:13:24;11.18;53.35
66722;SHT31;53633;49.932;10.884;2024-03-08T08:15:55;11.06;54.63
66722;SHT31;53633;49.932;10.884;2024-03-08T08:18:34;11.50;53.43
66722;SHT31;53633;49.932;10.884;2024-03-08T08:21:06;10.69;54.19
66722;SHT31;53633;49.932;10.884;2024-03-08T08:23:33;11.06;53.71
66722;SHT31;53633;49.932;10.884;2024-03-08T08:26:03;10.57;54.79
66722;SHT31;53633;49.932;10.884;2024-03-08T08:28:32;10.84;55.23
66722;SHT31;53633;49.932;10.884;2024-03-08T08:30:59;11.13;54.44
66722;SHT31;53633;49.932;10.884;2024-03-08T08:33:27;11.59;53.52
66722;SHT31;53633;49.932;10.884;2024-03-08T08:35:54;11.06;53.05
66722;SHT31;53633;49.932;10.884;2024-03-08T08:38:21;10.67;54.33
66722;SHT31;53633;49.932;10.884;2024-03-08T08:40:48;10.68;54.20
66722;SHT31;53633;49.932;10.884;2024-03-08T08:43:17;10.61;54.62
66722;SHT31;53633;49.932;10.884;2024-03-08T08:45:44;10.84;54.67
66722;SHT31;53633;49.932;10.884;2024-03-08T08:48:25;10.37;55.90
66722;SHT31;53633;49.932;10.884;2024-03-08T08:50:54;10.17;56.15
66722;SHT31;53633;49.932;10.884;2024-03-08T08:53:20;10.05;56.03
66722;SHT31;53633;49.932;10.884;2024-03-08T08:55:50;10.14;56.20
66722;SHT31;53633;49.932;10.884;2024-03-08T08:58:17;10.06;55.87
66722;SHT31;53633;49.932;10.884;2024-03-08T09:00:44;9.89;56.75
66722;SHT31;53633;49.932;10.884;2024-03-08T09:03:11;10.02;57.12
66722;SHT31;53633;49.932;10.884;2024-03-08T09:05:38;10.20;56.01
66722;SHT31;53633;49.932;10.884;2024-03-08T09:08:12;10.36;56.36
66722;SHT31;53633;49.932;10.884;2024-03-08T09:10:39;9.95;56.42
66722;SHT31;53633;49.932;10.884;2024-03-08T09:13:06;10.17;57.30
66722;SHT31;53633;49.932;10.884;2024-03-08T09:15:37;9.92;56.64
66722;SHT31;53633;49.932;10.884;2024-03-08T09:18:06;9.57;57.23
66722;SHT31;53633;49.932;10.884;2024-03-08T09:20:39;9.93;57.43
66722;SHT31;53633;49.932;10.884;2024-03-08T09:23:05;9.68;57.29
66722;SHT31;53633;49.932;10.884;2024-03-08T09:25:36;9.59;57.90
66722;SHT31;53633;49.932;10.884;2024-03-08T09:28:03;9.55;57.96
66722;SHT31;53633;49.932;10.884;2024-03-08T09:30:34;9.64;57.57
66722;SHT31;53633;49.932;10.884;2024-03-08T09:33:02;9.36;58.00
66722;SHT31;53633;49.932;10.884;2024-03-08T09:35:29;9.34;58.27
66722;SHT31;53633;49.932;10.884;2024-03-08T09:37:56;9.48;58.11
66722;SHT31;53633;49.932;10.884;2024-03-08T09:40:23;9.47;58.11
66722;SHT31;53633;49.932;10.884;2024-03-08T09:42:59;9.58;57.78
66722;SHT31;53633;49.932;10.884;2024-03-08T09:45:26;9.54;57.82
66722;SHT31;53633;49.932;10.884;2024-03-08T09:47:57;9.41;58.45
66722;SHT31;53633;49.932;10.884;2024-03-08T09:50:27;9.27;58.64
66722;SHT31;53633;49.932;10.884;2024-03-08T09:53:11;9.43;59.35
66722;SHT31;53633;49.932;10.884;2024-03-08T09:55:46;9.50;58.59
66722;SHT31;53633;49.932;10.884;2024-03-08T09:58:18;9.67;58.53
66722;SHT31;53633;49.932;10.884;2024-03-08T10:00:46;9.54;58.25
66722;SHT31;53633;49.932;10.884;2024-03-08T10:03:15;9.74;58.48
66722;SHT31;53633;49.932;10.884;2024-03-08T10:05:51;9.71;58.60
66722;SHT31;53633;49.932;10.884;2024-03-08T10:08:18;9.64;59.05
66722;SHT31;53633;49.932;10.884;2024-03-08T10:10:51;9.27;58.61
66722;SHT31;53633;49.932;10.884;2024-03-08T10:13:23;9.06;59.19
66722;SHT31;53633;49.932;10.884;2024-03-08T10:15:50;9.10;60.04
66722;SHT31;53633;49.932;10.884;2024-03-08T10:18:17;9.17;60.66
66722;SHT31;53633;49.932;10.884;2024-03-08T10:21:02;9.17;60.46
66722;SHT31;53633;49.932;10.884;2024-03-08T10:23:30;9.24;59.45
66722;SHT31;53633;49.932;10.884;2024-03-08T10:25:57;9.37;59.24
66722;SHT31;53633;49.932;10.884;2024-03-08T10:28:29;9.05;59.41
66722;SHT31;53633;49.932;10.884;2024-03-08T10:31:01;9.19;59.64
66722;SHT31;53633;49.932;10.884;2024-03-08T10:33:28;9.24;59.64
66722;SHT31;53633;49.932;10.884;2024-03-08T10:35:55;9.31;60.10
66722;SHT31;53633;49.932;10.884;2024-03-08T10:38:23;9.23;59.53
66722;SHT31;53633;49.932;10.884;2024-03-08T10:40:50;9.30;59.91
66722;SHT31;53633;49.932;10.884;2024-03-08T10:43:22;9.38;60.12
66722;SHT31;53633;49.932;10.884;2024-03-08T10:46:08;9.44;59.33
66722;SHT31;53633;49.932;10.884;2024-03-08T10:48:43;9.36;58.79
66722;SHT31;53633;49.932;10.884;2024-03-08T10:51:12;9.34;59.29
66722;SHT31;53633;49.932;10.884;2024-03-08T10:53:39;9.36;58.39
66722;SHT31;53633;49.932;10.884;2024-03-08T10:56:06;9.31;57.34
66722;SHT31;53633;49.932;10.884;2024-03-08T10:58:35;9.31;58.49
66722;SHT31;53633;49.932;10.884;2024-03-08T11:01:05;9.37;58.98
66722;SHT31;53633;49.932;10.884;2024-03-08T11:03:44;9.41;58.46
66722;SHT31;53633;49.932;10.884;2024-03-08T11:06:17;9.28;58.90
66722;SHT31;53633;49.932;10.884;2024-03-08T11:08:46;9.38;58.76
66722;SHT31;53633;49.932;10.884;2024-03-08T11:11:28;9.40;58.39
66722;SHT31;53633;49.932;10.884;2024-03-08T11:14:01;9.44;59.00
66722;SHT31;53633;49.932;10.884;2024-03-08T11:16:44;9.36;58.93
66722;SHT31;53633;49.932;10.884;2024-03-08T11:19:24;9.47;59.03
66722;SHT31;53633;49.932;10.884;2024-03-08T11:22:01;9.47;58.53
66722;SHT31;53633;49.932;10.884;2024-03-08T11:24:37;9.50;58.50
66722;SHT31;53633;49.932;10.884;2024-03-08T11:27:04;9.61;59.00
66722;SHT31;53633;49.932;10.884;2024-03-08T11:29:37;9.64;58.88
66722;SHT31;53633;49.932;10.884;2024-03-08T11:32:10;9.68;59.56
66722;SHT31;53633;49.932;10.884;2024-03-08T11:34:37;9.62;59.52
66722;SHT31;53633;49.932;10.884;2024-03-08T11:37:08;9.48;59.50
66722;SHT31;53633;49.932;10.884;2024-03-08T11:39:38;9.38;59.19
66722;SHT31;53633;49.932;10.884;2024-03-08T11:42:05;9.33;59.16
66722;SHT31;53633;49.932;10.884;2024-03-08T11:44:32;9.31;59.13
66722;SHT31;53633;49.932;10.884;2024-03-08T11:46:59;9.27;59.33
66722;SHT31;53633;49.932;10.884;2024-03-08T11:49:28;9.27;58.72
66722;SHT31;53633;49.932;10.884;2024-03-08T11:51:54;9.27;59.34
66722;SHT31;53633;49.932;10.884;2024-03-08T11:54:23;9.27;58.98
66722;SHT31;53633;49.932;10.884;2024-03-08T11:56:51;9.34;59.48
66722;SHT31;53633;49.932;10.884;2024-03-08T11:59:18;9.38;58.88
66722;SHT31;53633;49.932;10.884;2024-03-08T12:01:58;9.37;58.93
66722;SHT31;53633;49.932;10.884;2024-03-08T12:04:25;9.40;58.69
66722;SHT31;53633;49.932;10.884;2024-03-08T12:06:55;9.48;59.82
66722;SHT31;53633;49.932;10.884;2024-03-08T12:09:22;9.45;58.58
66722;SHT31;53633;49.932;10.884;2024-03-08T12:11:49;9.50;58.84
66722;SHT31;53633;49.932;10.884;2024-03-08T12:14:18;9.50;58.77
66722;SHT31;53633;49.932;10.884;2024-03-08T12:16:45;9.52;58.35
66722;SHT31;53633;49.932;10.884;2024-03-08T12:19:23;9.51;58.59
66722;SHT31;53633;49.932;10.884;2024-03-08T12:21:50;9.58;58.83
66722;SHT31;53633;49.932;10.884;2024-03-08T12:24:23;9.64;58.47
66722;SHT31;53633;49.932;10.884;2024-03-08T12:26:52;9.58;58.40
66722;SHT31;53633;49.932;10.884;2024-03-08T12:29:24;9.64;58.50
66722;SHT31;53633;49.932;10.884;2024-03-08T12:31:51;9.70;57.09
66722;SHT31;53633;49.932;10.884;2024-03-08T12:34:20;9.68;56.98
66722;SHT31;53633;49.932;10.884;2024-03-08T12:36:50;9.77;57.28
66722;SHT31;53633;49.932;10.884;2024-03-08T12:39:21;9.77;58.13
66722;SHT31;53633;49.932;10.884;2024-03-08T12:41:56;9.68;57.01
66722;SHT31;53633;49.932;10.884;2024-03-08T12:44:24;9.75;56.95
66722;SHT31;53633;49.932;10.884;2024-03-08T12:46:52;9.81;56.27
66722;SHT31;53633;49.932;10.884;2024-03-08T12:49:19;9.86;56.04
66722;SHT31;53633;49.932;10.884;2024-03-08T12:51:46;9.93;55.56
66722;SHT31;53633;49.932;10.884;2024-03-08T12:54:13;9.88;54.89
66722;SHT31;53633;49.932;10.884;2024-03-08T12:56:45;9.88;55.07
66722;SHT31;53633;49.932;10.884;2024-03-08T12:59:12;9.91;55.44
66722;SHT31;53633;49.932;10.884;2024-03-08T13:01:39;9.83;56.04
66722;SHT31;53633;49.932;10.884;2024-03-08T13:04:07;9.93;56.41
66722;SHT31;53633;49.932;10.884;2024-03-08T13:06:35;10.06;55.41
66722;SHT31;53633;49.932;10.884;2024-03-08T13:09:03;10.09;56.33
66722;SHT31;53633;49.932;10.884;2024-03-08T13:11:33;10.02;55.94
66722;SHT31;53633;49.932;10.884;2024-03-08T13:14:02;10.03;56.27
66722;SHT31;53633;49.932;10.884;2024-03-08T13:16:30;9.95;56.22
66722;SHT31;53633;49.932;10.884;2024-03-08T13:18:56;9.99;56.56
66722;SHT31;53633;49.932;10.884;2024-03-08T13:21:23;10.01;56.62
66722;SHT31;53633;49.932;10.884;2024-03-08T13:23:51;10.14;56.69
66722;SHT31;53633;49.932;10.884;2024-03-08T13:26:21;10.14;55.90
66722;SHT31;53633;49.932;10.884;2024-03-08T13:28:49;10.17;56.26
66722;SHT31;53633;49.932;10.884;2024-03-08T13:31:18;10.21;56.39
66722;SHT31;53633;49.932;10.884;2024-03-08T13:33:45;10.24;55.57
66722;SHT31;53633;49.932;10.884;2024-03-08T13:36:12;10.23;55.79
66722;SHT31;53633;49.932;10.884;2024-03-08T13:38:41;10.26;56.22
66722;SHT31;53633;49.932;10.884;2024-03-08T13:41:10;10.21;54.93
66722;SHT31;53633;49.932;10.884;2024-03-08T13:43:39;10.19;55.56
66722;SHT31;53633;49.932;10.884;2024-03-08T13:46:08;10.26;55.83
66722;SHT31;53633;49.932;10.884;2024-03-08T13:48:38;10.32;55.75
66722;SHT31;53633;49.932;10.884;2024-03-08T13:51:08;10.41;55.54
66722;SHT31;53633;49.932;10.884;2024-03-08T13:53:36;10.47;53.62
66722;SHT31;53633;49.932;10.884;2024-03-08T13:56:06;10.60;53.83
66722;SHT31;53633;49.932;10.884;2024-03-08T13:58:50;10.53;54.56
66722;SHT31;53633;49.932;10.884;2024-03-08T14:01:19;10.54;54.25
66722;SHT31;53633;49.932;10.884;2024-03-08T14:03:51;10.63;54.53
66722;SHT31;53633;49.932;10.884;2024-03-08T14:06:18;10.60;53.85
66722;SHT31;53633;49.932;10.884;2024-03-08T14:08:50;10.63;53.57
66722;SHT31;53633;49.932;10.884;2024-03-08T14:11:17;10.60;55.42
66722;SHT31;53633;49.932;10.884;2024-03-08T14:13:48;10.57;57.09
66722;SHT31;53633;49.932;10.884;2024-03-08T14:16:21;10.57;56.74
66722;SHT31;53633;49.932;10.884;2024-03-08T14:18:52;10.54;57.33
66722;SHT31;53633;49.932;10.884;2024-03-08T14:21:19;10.53;57.62
66722;SHT31;53633;49.932;10.884;2024-03-08T14:23:51;10.56;57.83
66722;SHT31;53633;49.932;10.884;2024-03-08T14:26:19;10.57;57.09
66722;SHT31;53633;49.932;10.884;2024-03-08T14:28:49;10.54;57.10
66722;SHT31;53633;49.932;10.884;2024-03-08T14:31:18;10.51;56.31
66722;SHT31;53633;49.932;10.884;2024-03-08T14:33:45;10.44;56.37
66722;SHT31;53633;49.932;10.884;2024-03-08T14:36:18;10.56;55.44
66722;SHT31;53633;49.932;10.884;2024-03-08T14:38:46;10.51;54.92
66722;SHT31;53633;49.932;10.884;2024-03-08T14:41:13;10.48;55.46
66722;SHT31;53633;49.932;10.884;2024-03-08T14:43:42;10.53;56.80
66722;SHT31;53633;49.932;10.884;2024-03-08T14:46:09;10.51;55.80
66722;SHT31;53633;49.932;10.884;2024-03-08T14:48:36;10.50;55.19
66722;SHT31;53633;49.932;10.884;2024-03-08T14:51:03;10.48;55.23
66722;SHT31;53633;49.932;10.884;2024-03-08T14:53:32;10.47;54.34
66722;SHT31;53633;49.932;10.884;2024-03-08T14:56:03;10.46;53.77
66722;SHT31;53633;49.932;10.884;2024-03-08T14:58:40;10.44;52.57
66722;SHT31;53633;49.932;10.884;2024-03-08T15:01:12;10.44;52.58
66722;SHT31;53633;49.932;10.884;2024-03-08T15:03:39;10.41;52.96
66722;SHT31;53633;49.932;10.884;2024-03-08T15:06:06;10.40;52.58
66722;SHT31;53633;49.932;10.884;2024-03-08T15:08:41;10.37;52.72
66722;SHT31;53633;49.932;10.884;2024-03-08T15:11:09;10.30;53.42
66722;SHT31;53633;49.932;10.884;2024-03-08T15:13:41;10.33;53.47
66722;SHT31;53633;49.932;10.884;2024-03-08T15:16:12;10.32;53.33
66722;SHT31;53633;49.932;10.884;2024-03-08T15:18:41;10.33;53.58
66722;SHT31;53633;49.932;10.884;2024-03-08T15:21:17;10.33;53.51
66722;SHT31;53633;49.932;10.884;2024-03-08T15:23:46;10.37;53.79
66722;SHT31;53633;49.932;10.884;2024-03-08T15:26:19;10.33;54.08
66722;SHT31;53633;49.932;10.884;2024-03-08T15:28:48;10.36;54.63
66722;SHT31;53633;49.932;10.884;2024-03-08T15:31:16;10.34;54.70
66722;SHT31;53633;49.932;10.884;2024-03-08T15:33:51;10.30;54.32
66722;SHT31;53633;49.932;10.884;2024-03-08T15:36:19;10.30;53.98